Time;durP1;ratioP1;P1;durP2;ratioP2;P2;SDS_P1;SDS_P2;PMS_P1;PMS_P2;Temp;Humidity;BMP_temperature;BMP_pressure;BME280_temperature;BME280_humidity;BME280_pressure;Samples;Min_cycle;Max_cycle;Signal;HPM_P1;HPM_P2
2022/07/08 00:01:38;;;;;;;3.60;2.80;;;17.40;99.90;;;;;;5036447;28;20426;-78
2022/07/08 00:04:05;;;;;;;3.73;1.83;;;17.30;99.90;;;;;;5036351;28;20428;-77
2022/07/08 00:06:30;;;;;;;10.13;1.60;;;17.30;99.90;;;;;;5036115;28;20418;-77
2022/07/08 00:08:56;;;;;;;3.37;2.10;;;17.30;99.90;;;;;;5036246;28;20469;-77
2022/07/08 00:11:22;;;;;;;7.10;2.40;;;17.30;99.90;;;;;;5036156;28;20184;-78
2022/07/08 00:13:48;;;;;;;6.30;1.90;;;17.30;99.90;;;;;;5036126;28;20429;-77
2022/07/08 00:16:15;;;;;;;5.77;2.30;;;17.20;99.90;;;;;;5035917;28;20426;-78
2022/07/08 00:18:41;;;;;;;6.07;2.03;;;17.20;99.90;;;;;;5036179;28;20528;-77
2022/07/08 00:21:06;;;;;;;5.20;2.80;;;17.10;99.90;;;;;;5036055;28;20422;-77
2022/07/08 00:23:32;;;;;;;6.60;2.60;;;17.10;99.90;;;;;;5035976;28;20428;-78
2022/07/08 00:25:58;;;;;;;5.50;2.57;;;17.10;99.90;;;;;;5035683;28;20187;-77
2022/07/08 00:28:24;;;;;;;6.37;2.13;;;17.00;99.90;;;;;;5035723;28;20314;-77
2022/07/08 00:30:50;;;;;;;5.43;2.40;;;17.00;99.90;;;;;;5035783;28;20925;-77
2022/07/08 00:33:16;;;;;;;4.90;2.30;;;17.10;99.90;;;;;;5035749;28;20521;-77
2022/07/08 00:35:41;;;;;;;3.77;1.77;;;17.10;99.90;;;;;;5035503;28;20184;-77
2022/07/08 00:38:07;;;;;;;6.63;2.20;;;17.10;99.90;;;;;;5035610;28;20204;-77
2022/07/08 00:40:34;;;;;;;4.97;2.00;;;17.10;99.90;;;;;;5035912;28;20233;-77
2022/07/08 00:43:00;;;;;;;4.57;2.30;;;17.10;99.90;;;;;;5035473;28;20179;-77
2022/07/08 00:45:26;;;;;;;5.50;2.00;;;17.10;99.90;;;;;;5035346;28;20460;-77
2022/07/08 00:47:52;;;;;;;5.13;1.90;;;17.10;99.90;;;;;;5035181;28;20458;-77
2022/07/08 00:50:18;;;;;;;4.20;1.80;;;17.00;99.90;;;;;;5035336;28;20183;-77
2022/07/08 00:52:45;;;;;;;6.00;2.87;;;17.00;99.90;;;;;;5035341;28;20237;-77
2022/07/08 00:55:14;;;;;;;4.33;2.03;;;16.90;99.90;;;;;;5035234;28;20422;-77
2022/07/08 00:57:40;;;;;;;6.20;2.10;;;16.90;99.90;;;;;;5034869;28;20816;-77
2022/07/08 01:00:07;;;;;;;6.33;2.20;;;16.90;99.90;;;;;;5035197;28;20418;-77
2022/07/08 01:02:33;;;;;;;6.23;3.13;;;17.00;99.90;;;;;;5034988;28;20984;-77
2022/07/08 01:04:59;;;;;;;5.67;2.40;;;17.00;99.90;;;;;;5034995;28;20457;-77
2022/07/08 01:07:25;;;;;;;4.20;2.30;;;17.00;99.90;;;;;;5034639;28;20208;-78
2022/07/08 01:09:51;;;;;;;6.63;2.30;;;16.90;99.90;;;;;;5035089;28;20476;-77
2022/07/08 01:12:17;;;;;;;4.10;1.87;;;16.90;99.90;;;;;;5034886;28;20417;-77
2022/07/08 01:14:43;;;;;;;6.97;2.07;;;16.80;99.90;;;;;;5035324;28;20987;-77
2022/07/08 01:17:09;;;;;;;6.80;2.60;;;16.80;99.90;;;;;;5034563;28;20442;-77
2022/07/08 01:19:35;;;;;;;5.93;2.30;;;16.90;99.90;;;;;;5034851;28;20564;-77
2022/07/08 01:22:01;;;;;;;4.93;2.50;;;16.90;99.90;;;;;;5034806;28;20434;-77
2022/07/08 01:24:27;;;;;;;4.10;1.90;;;16.90;99.90;;;;;;5034955;28;20563;-78
2022/07/08 01:26:55;;;;;;;7.73;2.30;;;16.90;99.90;;;;;;5034216;28;20426;-77
2022/07/08 01:29:21;;;;;;;6.77;2.40;;;16.90;99.90;;;;;;5034766;28;20709;-77
2022/07/08 01:31:53;;;;;;;6.30;2.37;;;16.90;99.90;;;;;;5052580;28;20475;-77
2022/07/08 01:34:20;;;;;;;5.87;2.80;;;16.90;99.90;;;;;;5034677;28;20936;-77
2022/07/08 01:36:46;;;;;;;6.40;3.03;;;16.90;99.90;;;;;;5034200;28;20856;-77
2022/07/08 01:39:12;;;;;;;5.40;2.67;;;16.80;99.90;;;;;;5034467;28;20986;-77
2022/07/08 01:41:38;;;;;;;4.33;2.20;;;16.90;99.90;;;;;;5034353;28;20430;-77
2022/07/08 01:44:04;;;;;;;5.57;2.00;;;16.90;99.90;;;;;;5034425;28;20183;-77
2022/07/08 01:46:29;;;;;;;6.70;1.80;;;16.90;99.90;;;;;;5034210;28;20569;-78
2022/07/08 01:48:55;;;;;;;4.73;2.10;;;16.90;99.90;;;;;;5034284;28;20857;-77
2022/07/08 01:51:21;;;;;;;5.87;2.03;;;16.80;99.90;;;;;;5034170;28;20562;-77
2022/07/08 01:53:47;;;;;;;3.33;2.00;;;16.80;99.90;;;;;;5034298;28;20190;-77
2022/07/08 01:56:12;;;;;;;4.77;2.90;;;16.80;99.90;;;;;;5033957;28;20646;-77
2022/07/08 01:58:38;;;;;;;4.70;1.93;;;16.70;99.90;;;;;;5034036;28;20663;-77
2022/07/08 02:01:04;;;;;;;3.97;1.70;;;16.80;99.90;;;;;;5034160;28;20195;-77
2022/07/08 02:03:30;;;;;;;5.30;2.10;;;16.70;99.90;;;;;;5034110;28;20206;-77
2022/07/08 02:05:56;;;;;;;6.10;2.03;;;16.70;99.90;;;;;;5033774;28;20855;-78
2022/07/08 02:08:23;;;;;;;3.53;2.00;;;16.70;99.90;;;;;;5033901;28;20207;-77
2022/07/08 02:13:33;;;;;;;3.87;1.70;;;16.70;99.90;;;;;;5051288;28;20471;-77
2022/07/08 02:16:02;;;;;;;5.93;2.10;;;16.60;99.90;;;;;;5033631;28;20517;-77
2022/07/08 02:18:28;;;;;;;7.50;2.10;;;16.60;99.90;;;;;;5033881;28;20418;-77
2022/07/08 02:20:54;;;;;;;10.00;2.17;;;16.60;99.90;;;;;;5033731;28;20472;-77
2022/07/08 02:23:19;;;;;;;6.70;2.77;;;16.60;99.90;;;;;;5033919;28;20191;-77
2022/07/08 02:25:45;;;;;;;5.03;2.33;;;16.60;99.90;;;;;;5033647;28;20271;-77
2022/07/08 02:28:11;;;;;;;4.97;2.10;;;16.70;99.90;;;;;;5033588;28;20219;-77
2022/07/08 02:30:37;;;;;;;7.50;1.93;;;16.70;99.90;;;;;;5033847;28;20175;-77
2022/07/08 02:33:02;;;;;;;4.60;1.90;;;16.70;99.90;;;;;;5033708;28;20540;-77
2022/07/08 02:35:28;;;;;;;10.80;2.77;;;16.70;99.90;;;;;;5033632;28;20218;-77
2022/07/08 02:37:54;;;;;;;4.03;2.20;;;16.60;99.90;;;;;;5033626;28;20207;-77
2022/07/08 02:40:20;;;;;;;4.20;2.10;;;16.60;99.90;;;;;;5033850;28;20192;-77
2022/07/08 02:42:46;;;;;;;4.03;1.77;;;16.60;99.90;;;;;;5033888;28;20434;-77
2022/07/08 02:45:12;;;;;;;4.00;2.20;;;16.60;99.90;;;;;;5033685;28;20192;-77
2022/07/08 02:47:37;;;;;;;4.13;2.30;;;16.60;99.90;;;;;;5033180;28;20208;-77
2022/07/08 02:50:05;;;;;;;4.70;2.30;;;16.60;99.90;;;;;;5033425;28;20468;-77
2022/07/08 02:52:30;;;;;;;3.00;1.97;;;16.50;99.90;;;;;;5033425;28;20278;-77
2022/07/08 02:54:56;;;;;;;4.17;1.90;;;16.50;99.90;;;;;;5033600;28;20989;-77
2022/07/08 02:57:25;;;;;;;6.53;2.20;;;16.50;99.90;;;;;;5033261;28;20204;-77
2022/07/08 02:59:51;;;;;;;5.07;2.03;;;16.50;99.90;;;;;;5033570;28;20191;-77
2022/07/08 03:02:16;;;;;;;4.30;2.00;;;16.60;99.90;;;;;;5033771;28;20426;-77
2022/07/08 03:04:42;;;;;;;4.63;2.10;;;16.60;99.90;;;;;;5033355;28;20570;-77
2022/07/08 03:07:08;;;;;;;4.27;2.10;;;16.60;99.90;;;;;;5032985;28;20204;-77
2022/07/08 03:09:34;;;;;;;5.80;2.23;;;16.60;99.90;;;;;;5033472;28;20717;-77
2022/07/08 03:12:01;;;;;;;3.77;2.00;;;16.60;99.90;;;;;;5016961;28;20958;-77
2022/07/08 03:14:27;;;;;;;3.40;1.83;;;16.60;99.90;;;;;;5034515;28;20422;-77
2022/07/08 03:16:52;;;;;;;4.97;1.93;;;16.70;99.90;;;;;;5033081;28;20186;-77
2022/07/08 03:19:18;;;;;;;4.90;2.67;;;16.70;99.90;;;;;;5033520;28;20283;-77
2022/07/08 03:21:44;;;;;;;5.60;2.57;;;16.70;99.90;;;;;;5033204;28;20183;-77
2022/07/08 03:24:10;;;;;;;10.00;2.07;;;16.70;99.90;;;;;;5033874;28;20230;-77
2022/07/08 03:26:35;;;;;;;3.93;2.37;;;16.70;99.90;;;;;;5036607;28;20192;-77
2022/07/08 03:29:01;;;;;;;13.03;2.43;;;16.70;99.90;;;;;;5036925;28;20221;-77
2022/07/08 03:31:27;;;;;;;4.30;2.20;;;16.70;99.90;;;;;;5036935;28;20184;-77
2022/07/08 03:33:53;;;;;;;5.40;2.13;;;16.70;99.90;;;;;;5036746;28;20233;-77
2022/07/08 03:36:19;;;;;;;5.63;2.10;;;16.70;99.90;;;;;;5036688;28;20274;-77
2022/07/08 03:38:45;;;;;;;7.07;2.10;;;16.70;99.90;;;;;;5036702;28;20199;-77
2022/07/08 03:41:20;;;;;;;6.23;2.77;;;16.70;99.90;;;;;;5036716;28;20482;-77
2022/07/08 03:43:47;;;;;;;7.27;2.70;;;16.70;99.90;;;;;;5036711;28;20274;-77
2022/07/08 03:46:13;;;;;;;5.10;2.40;;;16.70;99.90;;;;;;5036385;28;20422;-77
2022/07/08 03:48:39;;;;;;;4.73;2.00;;;16.70;99.90;;;;;;5036407;28;20483;-77
2022/07/08 03:51:05;;;;;;;4.80;2.27;;;16.60;99.90;;;;;;5036465;28;20433;-77
2022/07/08 03:53:31;;;;;;;4.40;1.90;;;16.60;99.90;;;;;;5036554;28;20192;-77
2022/07/08 03:55:57;;;;;;;5.33;2.50;;;16.60;99.90;;;;;;5036218;28;20514;-78
2022/07/08 03:58:23;;;;;;;4.20;2.60;;;16.50;99.90;;;;;;5036181;28;20446;-78
2022/07/08 04:00:49;;;;;;;8.07;4.73;;;16.40;99.90;;;;;;5036379;28;20643;-78
2022/07/08 04:03:15;;;;;;;3.90;2.20;;;16.40;99.90;;;;;;5036227;28;20804;-77
2022/07/08 04:05:40;;;;;;;5.50;2.43;;;16.40;99.90;;;;;;5036169;28;20233;-77
2022/07/08 04:08:06;;;;;;;6.63;2.43;;;16.30;99.90;;;;;;5036007;28;20549;-77
2022/07/08 04:10:32;;;;;;;3.63;2.17;;;16.30;99.90;;;;;;5036103;28;20631;-77
2022/07/08 04:12:58;;;;;;;3.83;1.80;;;16.20;99.90;;;;;;5036127;28;20183;-77
2022/07/08 04:15:23;;;;;;;4.00;1.87;;;16.20;99.90;;;;;;5036602;28;20211;-78
2022/07/08 04:17:49;;;;;;;6.10;1.80;;;16.20;99.90;;;;;;5035693;28;20222;-77
2022/07/08 04:20:15;;;;;;;5.10;1.97;;;16.20;99.90;;;;;;5036082;28;20184;-77
2022/07/08 04:22:41;;;;;;;3.77;2.00;;;16.30;99.90;;;;;;5035874;28;20191;-77
2022/07/08 04:25:07;;;;;;;8.23;2.37;;;16.30;99.90;;;;;;5035879;28;20487;-77
2022/07/08 04:27:33;;;;;;;3.63;1.80;;;16.30;99.90;;;;;;5035295;28;20584;-77
2022/07/08 04:29:59;;;;;;;3.30;1.90;;;16.20;99.90;;;;;;5035782;28;20418;-77
2022/07/08 04:32:25;;;;;;;3.70;1.87;;;16.30;99.90;;;;;;5035686;28;20932;-78
2022/07/08 04:34:51;;;;;;;4.77;2.57;;;16.30;99.90;;;;;;5036035;28;20232;-77
2022/07/08 04:37:20;;;;;;;5.80;2.33;;;16.30;99.90;;;;;;5034947;28;20260;-77
2022/07/08 04:39:46;;;;;;;2.97;1.83;;;16.30;99.90;;;;;;5035690;28;20414;-78
2022/07/08 04:42:12;;;;;;;4.57;1.97;;;16.30;99.90;;;;;;5035579;28;20646;-77
2022/07/08 04:44:37;;;;;;;4.23;2.23;;;16.20;99.90;;;;;;5035405;28;20556;-78
2022/07/08 04:47:03;;;;;;;7.90;2.10;;;16.20;99.90;;;;;;5035255;28;20689;-77
2022/07/08 04:49:29;;;;;;;5.40;2.07;;;16.20;99.90;;;;;;5035301;28;20239;-77
2022/07/08 04:51:55;;;;;;;3.60;2.43;;;16.30;99.90;;;;;;5035262;28;20953;-77
2022/07/08 04:54:20;;;;;;;4.23;2.13;;;16.40;99.90;;;;;;5035200;28;20637;-77
2022/07/08 04:56:46;;;;;;;6.23;2.20;;;16.40;99.90;;;;;;5034925;28;20324;-77
2022/07/08 04:59:12;;;;;;;5.17;1.90;;;16.40;99.90;;;;;;5035110;28;20602;-77
2022/07/08 05:01:38;;;;;;;4.80;2.60;;;16.50;99.90;;;;;;5035272;28;20654;-77
2022/07/08 05:04:04;;;;;;;7.37;2.80;;;16.50;99.90;;;;;;5035070;28;20190;-77
2022/07/08 05:06:29;;;;;;;6.60;2.30;;;16.40;99.90;;;;;;5034944;28;20184;-77
2022/07/08 05:08:55;;;;;;;3.90;2.23;;;16.50;99.90;;;;;;5034802;28;21012;-77
2022/07/08 05:11:21;;;;;;;4.30;2.10;;;16.50;99.90;;;;;;5035088;28;20187;-77
2022/07/08 05:13:46;;;;;;;12.30;2.67;;;16.40;99.90;;;;;;5034763;28;20560;-77
2022/07/08 05:16:12;;;;;;;6.20;1.90;;;16.40;99.90;;;;;;5034708;28;20556;-78
2022/07/08 05:18:40;;;;;;;3.70;1.97;;;16.40;99.90;;;;;;5034833;28;20265;-78
2022/07/08 05:21:05;;;;;;;6.57;2.10;;;16.40;99.90;;;;;;5034908;28;20213;-78
2022/07/08 05:23:31;;;;;;;7.77;2.80;;;16.40;99.90;;;;;;5034693;28;20438;-77
2022/07/08 05:25:57;;;;;;;6.50;2.50;;;16.50;99.90;;;;;;5034630;28;20187;-78
2022/07/08 05:28:23;;;;;;;4.83;2.10;;;16.40;99.90;;;;;;5034453;28;20212;-77
2022/07/08 05:30:49;;;;;;;7.80;2.80;;;16.50;99.90;;;;;;5034767;28;20207;-77
2022/07/08 05:33:15;;;;;;;7.87;2.10;;;16.50;99.90;;;;;;5034588;28;20659;-77
2022/07/08 05:35:41;;;;;;;4.53;1.63;;;16.60;99.90;;;;;;5034446;28;20449;-77
2022/07/08 05:38:06;;;;;;;3.23;2.33;;;16.80;99.90;;;;;;5034692;28;20199;-77
2022/07/08 05:40:32;;;;;;;5.13;2.60;;;16.90;99.90;;;;;;5034546;28;20678;-77
2022/07/08 05:42:58;;;;;;;6.50;2.20;;;17.00;99.90;;;;;;5034420;28;20245;-77
2022/07/08 05:45:24;;;;;;;4.40;2.00;;;17.10;99.90;;;;;;5034603;28;20271;-77
2022/07/08 05:47:49;;;;;;;4.30;1.93;;;17.10;99.90;;;;;;5033237;28;20614;-77
2022/07/08 05:50:16;;;;;;;5.47;2.00;;;17.20;99.90;;;;;;5034508;28;20579;-77
2022/07/08 05:52:41;;;;;;;4.03;2.30;;;17.20;99.90;;;;;;5034418;28;20199;-77
2022/07/08 05:55:09;;;;;;;3.43;2.20;;;17.10;99.90;;;;;;5034535;28;20414;-77
2022/07/08 05:57:34;;;;;;;5.33;2.30;;;17.20;99.90;;;;;;5034109;28;20325;-77
2022/07/08 06:00:00;;;;;;;8.43;2.10;;;17.20;99.90;;;;;;5034196;28;20509;-77
2022/07/08 06:02:26;;;;;;;3.17;2.00;;;17.40;99.90;;;;;;5034385;28;20184;-77
2022/07/08 06:04:52;;;;;;;4.73;2.10;;;17.40;99.90;;;;;;5034016;28;20225;-77
2022/07/08 06:07:18;;;;;;;4.23;2.00;;;17.50;99.90;;;;;;5033735;28;20195;-77
2022/07/08 06:09:44;;;;;;;6.80;2.47;;;17.70;99.90;;;;;;5034041;28;20219;-77
2022/07/08 06:12:10;;;;;;;4.93;2.30;;;17.80;99.90;;;;;;5033915;28;20187;-77
2022/07/08 06:14:36;;;;;;;6.80;2.33;;;17.80;99.90;;;;;;5033957;28;20779;-77
2022/07/08 06:17:02;;;;;;;7.53;2.20;;;17.90;99.90;;;;;;5033835;28;20430;-77
2022/07/08 06:19:28;;;;;;;3.47;1.90;;;17.90;99.90;;;;;;5033862;28;20647;-77
2022/07/08 06:21:53;;;;;;;5.03;2.10;;;18.00;99.90;;;;;;5034011;28;20433;-77
2022/07/08 06:24:19;;;;;;;3.50;2.23;;;18.00;99.90;;;;;;5034209;28;20194;-78
2022/07/08 06:26:46;;;;;;;5.00;2.13;;;18.10;99.90;;;;;;5033875;28;20187;-77
2022/07/08 06:29:12;;;;;;;3.83;1.80;;;18.30;99.90;;;;;;5033777;28;20257;-77
2022/07/08 06:31:40;;;;;;;4.20;2.00;;;18.30;99.90;;;;;;5033951;28;20450;-77
2022/07/08 06:34:06;;;;;;;5.23;2.40;;;18.30;99.90;;;;;;5033793;28;20562;-77
2022/07/08 06:36:33;;;;;;;4.50;1.83;;;18.40;99.90;;;;;;5033508;28;20423;-78
2022/07/08 06:38:59;;;;;;;3.10;2.07;;;18.40;99.90;;;;;;5033628;28;20204;-77
2022/07/08 06:41:25;;;;;;;10.07;2.30;;;18.50;99.90;;;;;;5033601;28;20426;-77
2022/07/08 06:43:50;;;;;;;5.43;2.30;;;18.50;99.90;;;;;;5033693;28;20785;-77
2022/07/08 06:46:16;;;;;;;5.33;1.90;;;18.50;99.90;;;;;;5033647;28;20198;-77
2022/07/08 06:48:42;;;;;;;4.90;1.80;;;18.40;99.90;;;;;;5033421;28;20474;-77
2022/07/08 06:51:10;;;;;;;4.83;2.83;;;18.30;99.90;;;;;;5033573;28;20921;-77
2022/07/08 06:56:20;;;;;;;3.27;2.00;;;18.40;99.90;;;;;;5051708;28;20410;-77
2022/07/08 06:58:46;;;;;;;3.90;1.73;;;18.30;99.90;;;;;;5033428;28;20442;-77
2022/07/08 07:01:12;;;;;;;6.43;2.23;;;18.30;99.90;;;;;;5037575;28;20180;-77
2022/07/08 07:03:38;;;;;;;3.30;1.60;;;18.40;99.90;;;;;;5037547;28;20184;-77
2022/07/08 07:06:04;;;;;;;4.70;2.87;;;18.50;99.90;;;;;;5037154;28;20710;-77
2022/07/08 07:08:30;;;;;;;3.33;1.60;;;18.70;99.90;;;;;;5037242;28;20981;-77
2022/07/08 07:10:55;;;;;;;6.33;1.70;;;18.80;99.90;;;;;;5037645;28;20491;-77
2022/07/08 07:13:21;;;;;;;5.97;2.13;;;19.10;99.90;;;;;;5037450;28;20179;-77
2022/07/08 07:15:47;;;;;;;4.57;1.77;;;19.30;99.90;;;;;;5037144;28;20218;-77
2022/07/08 07:18:13;;;;;;;5.27;1.90;;;19.40;99.90;;;;;;5037187;28;20207;-76
2022/07/08 07:20:38;;;;;;;3.73;1.50;;;19.60;99.90;;;;;;5037303;28;20190;-77
2022/07/08 07:23:04;;;;;;;4.30;1.67;;;19.70;99.90;;;;;;5037431;28;20287;-76
2022/07/08 07:25:30;;;;;;;3.07;1.77;;;19.70;99.90;;;;;;5037041;28;20563;-76
2022/07/08 07:27:56;;;;;;;5.40;1.70;;;19.60;99.90;;;;;;5036695;28;20564;-76
2022/07/08 07:30:25;;;;;;;2.87;1.70;;;19.80;99.90;;;;;;5036959;28;20211;-76
2022/07/08 07:32:54;;;;;;;4.07;1.63;;;20.00;99.90;;;;;;5037287;28;20222;-76
2022/07/08 07:35:20;;;;;;;6.40;2.00;;;20.00;99.90;;;;;;5036852;28;20454;-76
2022/07/08 07:37:46;;;;;;;4.87;1.93;;;20.00;99.90;;;;;;5036599;28;20469;-76
2022/07/08 07:40:12;;;;;;;5.33;1.83;;;20.10;99.90;;;;;;5036696;28;20460;-76
2022/07/08 07:42:38;;;;;;;3.50;1.80;;;20.40;99.90;;;;;;5036855;28;20183;-76
2022/07/08 07:45:05;;;;;;;5.40;1.77;;;20.40;99.90;;;;;;5036698;28;20635;-76
2022/07/08 07:47:31;;;;;;;4.40;2.00;;;20.60;99.90;;;;;;5036309;28;20204;-76
2022/07/08 07:49:57;;;;;;;3.70;1.97;;;20.90;99.90;;;;;;5036489;28;20434;-75
2022/07/08 07:52:23;;;;;;;3.40;1.90;;;21.20;99.90;;;;;;5036735;28;20521;-76
2022/07/08 07:54:49;;;;;;;5.20;1.77;;;21.50;99.90;;;;;;5036512;28;20191;-76
2022/07/08 07:57:15;;;;;;;3.40;1.60;;;21.60;99.90;;;;;;5036248;28;20222;-76
2022/07/08 07:59:41;;;;;;;4.10;2.13;;;21.70;99.90;;;;;;5036467;28;20278;-76
2022/07/08 08:02:08;;;;;;;4.00;1.80;;;21.60;99.90;;;;;;5036496;28;20484;-76
2022/07/08 08:04:34;;;;;;;4.03;2.20;;;21.50;99.90;;;;;;5036444;28;20436;-76
2022/07/08 08:07:00;;;;;;;4.87;1.97;;;21.30;99.90;;;;;;5036194;28;20757;-76
2022/07/08 08:09:26;;;;;;;2.80;1.60;;;21.10;99.90;;;;;;5036383;28;20473;-76
2022/07/08 08:11:52;;;;;;;2.53;1.50;;;20.90;99.90;;;;;;5035115;28;20450;-75
2022/07/08 08:14:18;;;;;;;3.70;1.70;;;21.10;99.90;;;;;;5036146;28;20426;-75
2022/07/08 08:16:44;;;;;;;3.70;2.93;;;21.70;99.90;;;;;;5035878;28;20978;-76
2022/07/08 08:19:10;;;;;;;3.70;1.67;;;22.90;99.90;;;;;;5036138;28;20519;-76
2022/07/08 08:21:36;;;;;;;5.50;1.80;;;23.30;99.90;;;;;;5036190;28;20558;-76
2022/07/08 08:24:03;;;;;;;3.57;2.10;;;24.10;99.90;;;;;;5036241;28;20191;-76
2022/07/08 08:26:29;;;;;;;3.23;1.73;;;25.20;99.90;;;;;;5035729;28;20513;-76
2022/07/08 08:28:55;;;;;;;5.50;2.53;;;26.10;99.90;;;;;;5036500;28;20569;-76
2022/07/08 08:31:24;;;;;;;3.37;2.00;;;26.80;96.50;;;;;;5036311;28;20184;-76
2022/07/08 08:33:50;;;;;;;5.90;2.10;;;27.30;93.60;;;;;;5036263;28;20184;-76
2022/07/08 08:36:17;;;;;;;5.53;1.97;;;27.20;94.80;;;;;;5037107;28;20441;-76
2022/07/08 08:38:43;;;;;;;7.40;2.30;;;27.90;90.80;;;;;;5037251;28;20250;-76
2022/07/08 08:41:10;;;;;;;5.07;2.20;;;27.70;84.50;;;;;;5036310;28;20797;-76
2022/07/08 08:43:35;;;;;;;4.93;2.27;;;27.00;85.10;;;;;;5036990;28;20186;-76
2022/07/08 08:46:02;;;;;;;3.93;1.73;;;27.60;90.10;;;;;;5037376;28;20438;-76
2022/07/08 08:48:35;;;;;;;4.73;1.90;;;28.90;90.10;;;;;;5036205;28;20207;-76
2022/07/08 08:51:03;;;;;;;5.10;2.50;;;29.20;79.20;;;;;;5036026;28;20499;-76
2022/07/08 08:53:30;;;;;;;8.10;1.90;;;29.00;76.10;;;;;;5035792;28;20465;-76
2022/07/08 08:55:57;;;;;;;5.07;1.70;;;27.60;77.10;;;;;;5035326;28;20475;-76
2022/07/08 08:58:23;;;;;;;4.50;1.60;;;27.20;81.50;;;;;;5035382;28;20528;-76
2022/07/08 09:00:49;;;;;;;7.50;2.10;;;28.10;83.70;;;;;;5035676;28;20426;-76
2022/07/08 09:03:15;;;;;;;6.97;2.37;;;29.30;74.60;;;;;;5035468;28;20444;-76
2022/07/08 09:05:41;;;;;;;4.40;2.00;;;28.80;71.20;;;;;;5035278;28;20792;-75
2022/07/08 09:08:07;;;;;;;4.20;1.80;;;27.90;72.60;;;;;;5035529;28;20466;-77
2022/07/08 09:10:34;;;;;;;5.50;1.70;;;28.70;75.80;;;;;;5036156;28;20605;-77
2022/07/08 09:13:02;;;;;;;6.07;2.30;;;30.20;72.40;;;;;;5036472;28;20176;-76
2022/07/08 09:15:57;;;;;;;4.53;1.80;;;31.50;68.10;;;;;;5037121;28;20422;-76
2022/07/08 09:18:29;;;;;;;4.33;1.77;;;32.50;60.50;;;;;;5036875;28;20450;-77
2022/07/08 09:20:56;;;;;;;4.70;1.67;;;33.60;58.50;;;;;;5038986;28;20785;-77
2022/07/08 09:23:26;;;;;;;8.13;1.90;;;34.50;54.70;;;;;;5039232;28;20430;-76
2022/07/08 09:25:54;;;;;;;4.83;2.50;;;34.50;51.30;;;;;;5039311;28;20850;-76
2022/07/08 09:28:29;;;;;;;3.33;2.10;;;34.10;51.00;;;;;;5038668;28;20473;-77
2022/07/08 09:30:56;;;;;;;5.80;1.70;;;35.00;49.80;;;;;;5038690;28;20426;-76
2022/07/08 09:33:24;;;;;;;6.20;1.67;;;35.80;47.10;;;;;;5039902;28;20951;-77
2022/07/08 09:35:50;;;;;;;3.10;1.40;;;36.10;47.40;;;;;;5039205;28;20475;-75
2022/07/08 09:38:20;;;;;;;4.90;1.70;;;36.40;44.70;;;;;;5034333;28;20442;-75
2022/07/08 09:41:00;;;;;;;3.97;1.57;;;36.70;43.90;;;;;;5034480;28;20437;-76
2022/07/08 09:43:26;;;;;;;3.50;1.60;;;37.40;43.10;;;;;;5034518;28;20467;-75
2022/07/08 09:45:52;;;;;;;8.17;1.80;;;37.80;41.20;;;;;;5034121;28;20445;-75
2022/07/08 09:48:19;;;;;;;4.73;1.50;;;38.10;40.50;;;;;;5034185;28;20473;-76
2022/07/08 09:50:48;;;;;;;7.20;1.60;;;38.50;39.50;;;;;;5052138;28;20433;-75
2022/07/08 09:53:16;;;;;;;3.83;1.50;;;38.50;38.60;;;;;;5039623;22;20505;-77
2022/07/08 09:55:44;;;;;;;7.33;1.63;;;38.60;37.40;;;;;;5014189;28;20415;-76
2022/07/08 09:58:13;;;;;;;4.90;1.83;;;39.10;37.70;;;;;;5030820;28;20439;-76
2022/07/08 10:00:41;;;;;;;3.90;1.77;;;39.70;37.70;;;;;;5030941;28;20434;-76
2022/07/08 10:03:07;;;;;;;2.93;1.30;;;39.90;37.20;;;;;;5030930;28;20794;-76
2022/07/08 10:05:33;;;;;;;6.47;1.90;;;40.40;37.40;;;;;;5030740;28;20410;-76
2022/07/08 10:07:59;;;;;;;2.93;1.50;;;40.50;35.60;;;;;;5030500;28;20216;-76
2022/07/08 10:10:26;;;;;;;6.10;2.17;;;38.30;35.60;;;;;;5030816;28;20415;-76
2022/07/08 10:12:56;;;;;;;5.10;1.63;;;37.10;37.40;;;;;;5030687;28;20183;-76
2022/07/08 10:15:28;;;;;;;3.57;1.63;;;37.20;37.40;;;;;;5030793;28;20914;-76
2022/07/08 10:17:57;;;;;;;4.17;1.40;;;36.60;36.40;;;;;;5030172;28;20980;-75
2022/07/08 10:20:26;;;;;;;4.00;1.33;;;36.00;38.10;;;;;;5030683;28;20726;-76
2022/07/08 10:22:57;;;;;;;5.80;1.93;;;35.70;37.70;;;;;;5030547;28;20522;-76
2022/07/08 10:25:25;;;;;;;4.00;1.50;;;37.00;37.50;;;;;;5030679;28;20734;-76
2022/07/08 10:27:50;;;;;;;2.60;1.10;;;38.00;37.00;;;;;;5030254;28;20446;-76
2022/07/08 10:30:19;;;;;;;4.83;1.60;;;37.30;36.20;;;;;;5030643;28;20430;-75
2022/07/08 10:32:48;;;;;;;3.60;1.63;;;36.30;36.80;;;;;;5030288;28;20176;-76
2022/07/08 10:35:19;;;;;;;5.30;1.63;;;36.60;38.10;;;;;;5029952;28;20772;-76
2022/07/08 10:37:49;;;;;;;3.23;1.50;;;37.70;38.20;;;;;;5013666;28;20432;-76
2022/07/08 10:40:41;;;;;;;4.40;1.57;;;37.20;36.70;;;;;;5030521;28;20416;-76
2022/07/08 10:43:20;;;;;;;3.63;1.37;;;36.30;36.90;;;;;;5009287;28;20902;-76
2022/07/08 10:45:59;;;;;;;3.40;1.50;;;34.90;37.90;;;;;;5030107;28;20502;-76
2022/07/08 10:48:40;;;;;;;3.70;1.67;;;33.40;39.40;;;;;;5030025;28;20509;-76
2022/07/08 10:51:23;;;;;;;2.90;1.40;;;32.30;41.40;;;;;;5030266;28;20430;-76
2022/07/08 10:53:53;;;;;;;6.90;1.70;;;31.50;41.10;;;;;;5030290;28;20447;-76
2022/07/08 10:56:53;;;;;;;3.00;1.40;;;30.60;42.10;;;;;;5029900;28;20411;-76
2022/07/08 10:59:29;;;;;;;5.30;2.93;;;30.10;43.10;;;;;;5030275;28;20423;-76
2022/07/08 11:01:55;;;;;;;4.23;1.70;;;29.50;45.30;;;;;;5030056;28;20505;-75
2022/07/08 11:04:37;;;;;;;3.70;1.77;;;29.60;46.20;;;;;;5030212;28;20510;-74
2022/07/08 11:07:20;;;;;;;3.70;1.83;;;29.80;46.00;;;;;;5029803;28;20592;-75
2022/07/08 11:09:49;;;;;;;5.13;2.20;;;29.30;46.00;;;;;;5030528;28;20462;-76
2022/07/08 11:12:17;;;;;;;4.23;1.60;;;29.40;47.10;;;;;;5029979;28;20419;-76
2022/07/08 11:14:48;;;;;;;5.37;1.83;;;29.60;48.40;;;;;;5030103;28;20803;-75
2022/07/08 11:17:21;;;;;;;4.57;1.87;;;29.40;48.00;;;;;;5029700;28;20431;-75
2022/07/08 11:19:49;;;;;;;3.20;2.00;;;29.70;47.60;;;;;;5030085;28;20847;-76
2022/07/08 11:22:15;;;;;;;5.17;2.10;;;30.00;49.10;;;;;;5029963;28;20422;-75
2022/07/08 11:24:43;;;;;;;5.47;1.77;;;29.80;46.70;;;;;;5029892;28;20847;-75
2022/07/08 11:27:09;;;;;;;4.23;1.97;;;29.60;46.80;;;;;;5029456;28;20435;-75
2022/07/08 11:29:35;;;;;;;4.23;1.97;;;29.50;48.30;;;;;;5029932;28;21207;-76
2022/07/08 11:32:03;;;;;;;5.03;1.70;;;29.20;47.80;;;;;;5029861;28;20415;-75
2022/07/08 11:34:29;;;;;;;6.47;1.67;;;29.10;49.50;;;;;;5029945;28;20438;-76
2022/07/08 11:36:59;;;;;;;5.50;1.73;;;29.10;51.00;;;;;;5029779;28;21004;-76
2022/07/08 11:39:25;;;;;;;8.97;1.60;;;28.50;49.90;;;;;;5029853;28;20419;-76
2022/07/08 11:41:52;;;;;;;4.60;1.93;;;28.30;52.20;;;;;;5029807;28;20514;-76
2022/07/08 11:44:20;;;;;;;5.47;2.10;;;28.10;51.40;;;;;;5029811;28;20431;-75
2022/07/08 11:46:53;;;;;;;4.10;2.00;;;28.10;52.60;;;;;;5031030;28;20419;-75
2022/07/08 11:49:26;;;;;;;5.93;1.70;;;28.20;52.40;;;;;;5033358;28;21130;-76
2022/07/08 11:51:54;;;;;;;4.70;2.27;;;28.50;52.50;;;;;;5016686;28;20415;-75
2022/07/08 11:54:23;;;;;;;6.53;2.20;;;28.50;51.70;;;;;;5033422;28;20986;-75
2022/07/08 11:56:53;;;;;;;4.20;2.17;;;28.60;50.90;;;;;;5032869;28;20457;-76
2022/07/08 11:59:27;;;;;;;4.93;1.87;;;28.60;52.50;;;;;;5033061;28;20412;-76
2022/07/08 12:01:54;;;;;;;3.20;1.50;;;28.50;52.60;;;;;;5033383;28;20477;-75
2022/07/08 12:04:21;;;;;;;4.87;1.83;;;28.60;54.70;;;;;;5033172;28;20450;-75
2022/07/08 12:06:52;;;;;;;6.60;1.70;;;28.40;51.40;;;;;;5032647;28;20427;-75
2022/07/08 12:09:20;;;;;;;3.90;1.50;;;28.40;53.30;;;;;;5032896;28;20843;-76
2022/07/08 12:11:49;;;;;;;7.80;1.83;;;28.30;53.40;;;;;;5032961;28;20422;-76
2022/07/08 12:14:15;;;;;;;4.63;2.50;;;28.20;52.90;;;;;;5034066;28;20553;-75
2022/07/08 12:16:45;;;;;;;7.70;1.47;;;28.30;53.30;;;;;;5032362;28;20437;-75
2022/07/08 12:19:34;;;;;;;3.10;1.70;;;28.50;53.90;;;;;;5032874;28;20411;-76
2022/07/08 12:22:12;;;;;;;5.60;2.00;;;28.60;54.00;;;;;;5032716;28;20453;-76
2022/07/08 12:24:40;;;;;;;4.43;1.80;;;28.50;52.50;;;;;;5032757;28;20792;-76
2022/07/08 12:27:28;;;;;;;6.23;2.07;;;28.50;53.80;;;;;;5032214;28;20477;-76
2022/07/08 12:30:03;;;;;;;5.57;1.97;;;28.40;55.60;;;;;;5032521;28;20470;-75
2022/07/08 12:32:43;;;;;;;5.43;1.60;;;28.10;54.50;;;;;;5032505;28;20521;-75
2022/07/08 12:35:10;;;;;;;4.87;2.23;;;27.90;54.50;;;;;;5032525;28;20418;-75
2022/07/08 12:37:37;;;;;;;5.67;1.87;;;27.80;53.90;;;;;;5032134;28;20443;-75
2022/07/08 12:40:17;;;;;;;3.30;1.63;;;27.90;56.30;;;;;;5015910;28;20431;-76
2022/07/08 12:42:59;;;;;;;7.73;2.07;;;28.00;55.90;;;;;;5015908;28;20427;-76
2022/07/08 12:45:28;;;;;;;3.43;1.40;;;28.00;55.00;;;;;;5032465;28;20411;-76
2022/07/08 12:47:54;;;;;;;8.87;1.87;;;27.90;55.60;;;;;;5031746;28;20439;-75
2022/07/08 12:50:20;;;;;;;4.60;1.90;;;28.20;57.50;;;;;;5032206;28;20434;-75
2022/07/08 12:52:46;;;;;;;2.93;1.43;;;28.20;56.10;;;;;;5032025;28;20667;-76